This is the latest recevied weather packets stored in our database for station/object K7KAZ. If no packets are shown the sender has not sent any weather packets the latest 10 day(s).
| Time | Temp. | Humidity | Pressure | Rain* | Wind** | Luminosity | Snow |
|---|---|---|---|---|---|---|---|
| 1778093175 | 23.89° C | 28% | 1018.3 hPa | 0 mm | - | 747 W/m² | - |
| 1778092872 | 23.33° C | 28% | 1018.3 hPa | 0 mm | - | 703 W/m² | - |
| 1778092569 | 23.89° C | 28% | 1018.5 hPa | 0 mm | - | 738 W/m² | - |
| 1778092264 | 23.89° C | 29% | 1018.4 hPa | 0 mm | - | 784 W/m² | - |
| 1778091963 | 23.89° C | 29% | 1018.9 hPa | 0 mm | - | 743 W/m² | - |
| 1778091659 | 23.33° C | 30% | 1018.8 hPa | 0 mm | - | 734 W/m² | - |
| 1778091357 | 22.78° C | 29% | 1018.7 hPa | 0 mm | - | 697 W/m² | - |
| 1778091054 | 23.33° C | 30% | 1018.9 hPa | 0 mm | - | 587 W/m² | - |
| 1778090750 | 23.33° C | 30% | 1018.8 hPa | 0 mm | - | 777 W/m² | - |
| 1778090447 | 23.33° C | 30% | 1018.8 hPa | 0 mm | - | 736 W/m² | - |
| 1778090143 | 22.78° C | 31% | 1019 hPa | 0 mm | - | 637 W/m² | - |
| 1778089840 | 22.78° C | 30% | 1018.8 hPa | 0 mm | - | 680 W/m² | - |
| 1778089539 | 23.33° C | 30% | 1018.9 hPa | 0 mm | - | 711 W/m² | - |
| 1778089234 | 22.78° C | 32% | 1019.2 hPa | 0 mm | - | 617 W/m² | - |
| 1778088932 | 22.78° C | 32% | 1018.7 hPa | 0 mm | - | 773 W/m² | - |
| 1778088629 | 22.22° C | 32% | 1018.9 hPa | 0 mm | - | 810 W/m² | - |
| 1778088326 | 21.67° C | 33% | 1019.1 hPa | 0 mm | - | 799 W/m² | - |
| 1778088022 | 22.22° C | 32% | 1018.9 hPa | 0 mm | - | 783 W/m² | - |
| 1778087720 | 22.22° C | 33% | 1019.1 hPa | 0 mm | - | 747 W/m² | - |
| 1778087417 | 21.67° C | 34% | 1018.8 hPa | 0 mm | - | 820 W/m² | - |
| 1778087114 | 21.67° C | 33% | 1018.9 hPa | 0 mm | - | 785 W/m² | - |
| 1778086806 | 21.67° C | 34% | 1019.2 hPa | 0 mm | - | 789 W/m² | - |
| 1778086505 | 22.22° C | 33% | 1019 hPa | 0 mm | - | 845 W/m² | - |
| 1778086200 | 21.11° C | 35% | 1018.6 hPa | 0 mm | - | 804 W/m² | - |
| 1778085897 | 21.67° C | 34% | 1019 hPa | 0 mm | - | 673 W/m² | - |
* Rain latest hour (hover to see other rain measurements)
** Current wind speed in m/s (hover to see current wind gust speed)